Latest Weather Observations for Kalumburu

IDD60801

Issued at 12:11 pm CST Tuesday 2 March 2021 (issued every 10 minutes, with the page automatically refreshed every 10 minutes)

About weather observations | Map of weather stations | Latest weather observations for NT | Other Formats
Station Details ID: 001019 Name: KALUMBURU Lat: -14.30 Lon: 126.65 Height: 23.0 m
Data from the previous 72 hours. | See also: Recent months at Kalumburu
Date/Time
CST
Temp
°C
App
Temp
°C
Dew
Point
°C
Rel
Hum
%
Delta-T
°C
Wind Press
QNH
hPa
Press
MSL
hPa
Rain since
9am
mm
Dir  Spd
km/h
Gust
km/h
Spd
kts
Gust
kts
02/12:00pm 34.1 38.1 22.8 51 7.8 W 6 11 3 6 1009.5 1009.3 0.0
02/11:30am 32.4 37.7 25.0 65 5.2 NW 6 11 3 6 1009.7 1009.5 0.0
02/11:00am 31.4 36.0 23.2 61 5.7 NNW 4 7 2 4 1010.0 1009.8 0.0
02/10:30am 30.8 36.8 24.9 71 4.2 S 2 7 1 4 1010.2 1010.0 0.0
02/10:00am 29.7 33.9 23.4 69 4.3 SW 7 15 4 8 1010.1 1009.9 0.0
02/09:30am 29.8 34.6 25.1 76 3.3 SSW 9 13 5 7 1010.0 1009.8 0.0
02/09:00am 28.7 34.9 26.3 87 1.7 SSW 6 11 3 6 1009.8 1009.6 0.0
02/08:30am 27.2 32.9 25.6 91 1.1 SSW 6 9 3 5 1009.4 1009.2 0.0
02/08:00am 26.8 33.8 25.8 94 0.7 CALM 0 0 0 0 1009.2 1009.0 0.0
02/07:30am 26.1 32.4 24.7 92 1.0 CALM 0 0 0 0 1008.8 1008.6 0.0
02/07:00am 25.9 31.5 24.3 91 1.1 SSW 2 7 1 4 1008.5 1008.3 0.0
02/06:30am 26.0 32.0 24.2 90 1.2 CALM 0 6 0 3 1008.5 1008.3 0.0
02/06:00am 26.5 32.8 24.7 90 1.3 CALM 0 0 0 0 1008.4 1008.2 0.0
02/05:30am 26.7 32.7 24.9 90 1.3 SSW 2 7 1 4 1008.6 1008.4 0.0
02/05:00am 26.8 33.3 25.0 90 1.3 CALM 0 7 0 4 1008.7 1008.5 0.0
02/04:30am 26.8 32.5 25.0 90 1.3 WSW 4 6 2 3 1008.9 1008.7 0.0
02/04:00am 26.9 33.4 25.1 90 1.3 CALM 0 0 0 0 1009.2 1009.0 0.0
02/03:30am 27.0 33.1 25.0 89 1.4 NW 2 7 1 4 1009.4 1009.2 0.0
02/03:00am 27.1 33.2 25.1 89 1.4 NW 2 7 1 4 1009.7 1009.5 0.0
02/02:30am 27.2 33.4 25.2 89 1.4 NW 2 7 1 4 1009.8 1009.6 0.0
02/02:00am 27.2 33.3 25.0 88 1.5 WNW 2 7 1 4 1009.7 1009.5 0.0
02/01:30am 27.3 32.6 24.9 87 1.7 WNW 6 9 3 5 1010.1 1009.9 0.0
02/01:00am 27.4 32.7 25.0 87 1.7 NW 6 7 3 4 1010.4 1010.2 0.0
02/12:30am 27.6 32.9 25.0 86 1.8 NW 6 11 3 6 1010.7 1010.5 0.0
02/12:00am 27.9 33.5 25.5 87 1.7 NW 6 9 3 5 1010.8 1010.6 0.0
 
Date/Time
CST
Temp
°C
App
Temp
°C
Dew
Point
°C
Rel
Hum
%
Delta-T
°C
Wind Press
QNH
hPa
Press
MSL
hPa
Rain since
9am
mm
Dir  Spd
km/h
Gust
km/h
Spd
kts
Gust
kts
01/11:30pm 27.9 33.1 25.1 85 2.0 WNW 7 11 4 6 1010.9 1010.7 0.0
01/11:00pm 28.0 32.7 25.0 84 2.1 NW 9 11 5 6 1010.6 1010.4 0.0
01/10:30pm 28.1 32.8 24.9 83 2.2 NW 9 15 5 8 1010.2 1010.0 0.0
01/10:00pm 28.1 32.5 24.5 81 2.5 NW 9 17 5 9 1010.0 1009.8 0.0
01/09:30pm 28.2 32.7 24.6 81 2.5 NNW 9 13 5 7 1009.7 1009.5 0.0
01/09:00pm 28.5 31.8 24.5 79 2.8 NNW 15 24 8 13 1009.4 1009.2 0.0
01/08:30pm 28.7 32.1 24.7 79 2.8 NNW 15 20 8 11 1008.9 1008.7 0.0
01/08:00pm 29.1 32.6 24.9 78 2.9 NNW 15 24 8 13 1008.3 1008.1 0.0
01/07:30pm 29.4 33.3 24.9 77 3.2 N 13 20 7 11 1007.7 1007.5 0.0
01/07:00pm 30.1 33.8 25.2 75 3.5 N 15 24 8 13 1007.1 1006.9 0.0
01/06:30pm 30.9 34.6 25.7 74 3.7 NNW 17 30 9 16 1006.7 1006.5 0.0
01/06:00pm 30.9 35.0 25.7 74 3.7 NNW 15 26 8 14 1006.6 1006.4 0.0
01/05:30pm 31.5 34.6 25.4 70 4.3 NNW 19 32 10 17 1006.4 1006.2 0.0
01/05:00pm 32.6 36.1 25.4 66 5.1 NNW 17 24 9 13 1005.9 1005.7 0.0
01/04:30pm 33.9 37.1 25.0 59 6.3 N 17 24 9 13 1006.1 1005.9 0.0
01/04:00pm 35.1 39.3 25.3 57 7.0 NNW 13 19 7 10 1006.1 1005.9 0.0
01/03:30pm 35.1 38.4 23.8 52 7.9 NNW 13 20 7 11 1006.2 1006.0 0.0
01/03:00pm 35.4 39.3 24.3 52 7.8 N 11 19 6 10 1006.6 1006.4 0.0
01/02:30pm 36.3 42.5 25.2 53 7.9 E 2 7 1 4 1007.0 1006.8 0.0
01/02:00pm 35.9 39.6 22.5 46 9.3 ESE 7 11 4 6 1007.5 1007.3 0.0
01/01:30pm 35.7 40.6 24.6 52 7.9 ENE 7 9 4 5 1007.9 1007.7 0.0
01/01:00pm 35.2 39.6 23.5 50 8.2 NNE 6 11 3 6 1008.4 1008.2 0.0
01/12:30pm 35.3 41.9 25.2 56 7.2 CALM 0 6 0 3 1008.7 1008.5 0.0
01/12:00pm 33.8 38.2 23.5 55 7.2 N 6 11 3 6 1009.1 1008.9 0.0
01/11:30am 33.0 38.6 23.6 57 6.5 CALM 0 6 0 3 1009.5 1009.3 0.0
01/11:00am 32.1 36.8 23.9 62 5.7 NW 6 11 3 6 1009.8 1009.6 0.0
01/10:30am 31.2 35.5 23.3 63 5.5 SSW 6 9 3 5 1010.0 1009.8 0.0
01/10:00am 29.6 35.1 24.7 75 3.4 W 4 11 2 6 1009.9 1009.7 0.0
01/09:30am 28.1 34.2 25.1 84 2.1 SSE 2 7 1 4 1009.6 1009.4 0.0
01/09:00am 26.3 32.2 25.3 94 0.7 WSW 4 7 2 4 1009.4 1009.2 0.0
01/08:30am 25.3 31.5 24.6 96 0.5 CALM 0 0 0 0 1009.1 1008.9 0.0
01/08:00am 24.1 29.6 23.4 96 0.5 CALM 0 0 0 0 1009.0 1008.8 0.0
01/07:30am 23.0 27.5 21.6 92 0.9 CALM 0 0 0 0 1008.9 1008.7 0.0
01/07:00am 22.9 27.4 21.5 92 0.9 CALM 0 0 0 0 1008.6 1008.4 0.0
01/06:30am 23.2 27.8 21.8 92 0.9 CALM 0 0 0 0 1008.4 1008.2 0.0
01/06:00am 23.2 27.7 21.6 91 1.1 CALM 0 0 0 0 1008.1 1007.9 0.0
01/05:30am 23.4 28.0 21.8 91 1.1 CALM 0 0 0 0 1008.0 1007.8 0.0
01/05:00am 23.6 28.3 22.0 91 1.1 CALM 0 0 0 0 1007.9 1007.7 0.0
01/04:30am 23.6 27.9 21.9 90 1.1 NE 2 7 1 4 1007.8 1007.6 0.0
01/04:00am 23.9 28.7 22.2 90 1.1 CALM 0 0 0 0 1007.8 1007.6 0.0
01/03:30am 24.2 29.2 22.5 90 1.1 CALM 0 0 0 0 1007.9 1007.7 0.0
01/03:00am 24.6 29.9 23.0 91 1.1 CALM 0 0 0 0 1008.2 1008.0 0.0
01/02:30am 24.7 29.9 22.9 90 1.2 CALM 0 0 0 0 1008.6 1008.4 0.0
01/02:00am 25.0 30.4 23.2 90 1.2 CALM 0 0 0 0 1008.7 1008.5 0.0
01/01:30am 25.2 30.7 23.4 90 1.2 CALM 0 0 0 0 1008.8 1008.6 0.0
01/01:00am 25.4 31.0 23.6 90 1.2 CALM 0 0 0 0 1009.0 1008.8 0.0
01/12:30am 25.7 31.5 23.9 90 1.2 CALM 0 0 0 0 1009.2 1009.0 0.0
01/12:00am 25.9 31.7 23.9 89 1.4 CALM 0 0 0 0 1009.2 1009.0 0.0
 
Date/Time
CST
Temp
°C
App
Temp
°C
Dew
Point
°C
Rel
Hum
%
Delta-T
°C
Wind Press
QNH
hPa
Press
MSL
hPa
Rain since
9am
mm
Dir  Spd
km/h
Gust
km/h
Spd
kts
Gust
kts
28/11:30pm 26.1 32.0 24.1 89 1.4 CALM 0 0 0 0 1009.1 1008.9 0.0
28/11:00pm 26.1 32.0 24.1 89 1.4 CALM 0 0 0 0 1009.2 1009.0 0.0
28/10:30pm 26.3 32.1 24.0 87 1.6 CALM 0 0 0 0 1008.9 1008.7 0.0
28/10:00pm 26.7 32.7 24.2 86 1.7 CALM 0 0 0 0 1008.6 1008.4 0.0
28/09:30pm 27.3 31.7 23.5 80 2.6 WNW 6 9 3 5 1008.2 1008.0 0.0
28/09:00pm 27.7 33.1 23.9 80 2.6 NW 2 7 1 4 1007.8 1007.6 0.0
28/08:30pm 28.6 33.4 24.2 77 3.1 NW 6 9 3 5 1007.3 1007.1 0.0
28/08:00pm 29.6 33.5 24.2 73 3.8 NW 11 17 6 9 1006.9 1006.7 0.0
28/07:30pm 30.3 34.1 24.7 72 3.9 NW 13 17 7 9 1006.5 1006.3 0.0
28/07:00pm 31.1 35.2 24.0 66 4.9 NNW 9 15 5 8 1005.9 1005.7 0.0
28/06:30pm 31.8 36.3 25.2 68 4.7 NNW 11 15 6 8 1005.5 1005.3 0.0
28/06:00pm 32.0 33.9 22.1 55 6.7 N 15 22 8 12 1005.4 1005.2 0.0
28/05:30pm 32.9 34.6 21.7 51 7.6 NNW 15 24 8 13 1005.4 1005.2 0.0
28/05:00pm 33.2 35.4 23.2 55 6.9 NNW 17 24 9 13 1005.3 1005.1 0.0
28/04:30pm 34.1 37.0 24.4 57 6.8 NNW 17 28 9 15 1005.3 1005.1 0.0
28/04:00pm 34.9 37.6 22.9 49 8.3 NNW 13 20 7 11 1005.4 1005.2 0.0
28/03:30pm 35.7 39.1 23.3 48 8.7 NNW 11 17 6 9 1005.7 1005.5 0.0
28/03:00pm 36.4 40.1 22.2 44 9.8 WNW 6 13 3 7 1006.0 1005.8 0.0
28/02:30pm 36.4 40.5 22.9 45 9.4 SE 6 9 3 5 1006.4 1006.2 0.0
28/02:00pm 36.2 40.3 21.6 42 10.0 S 2 7 1 4 1006.8 1006.6 0.0
28/01:30pm 36.0 39.9 22.5 45 9.3 NW 6 9 3 5 1007.3 1007.1 0.0
28/01:00pm 34.9 39.0 22.2 47 8.7 NW 4 13 2 7 1007.8 1007.6 0.0
28/12:30pm 35.0 40.3 23.7 52 7.9 SE 2 9 1 5 1008.1 1007.9 0.0
28/12:00pm 34.4 39.8 25.2 58 6.5 NE 6 9 3 5 1008.4 1008.2 0.0
28/11:30am 34.0 39.8 25.7 62 5.9 S 6 9 3 5 1008.6 1008.4 0.0
28/11:00am 32.6 38.8 24.6 62 5.6 CALM 0 0 0 0 1008.7 1008.5 0.0
28/10:30am 30.9 37.4 25.7 74 3.7 SW 2 6 1 3 1008.9 1008.7 0.0
28/10:00am 29.2 35.7 25.0 78 2.9 CALM 0 6 0 3 1008.8 1008.6 0.0
28/09:30am 27.8 34.9 26.0 90 1.3 CALM 0 0 0 0 1008.5 1008.3 0.0
28/09:00am 26.6 33.1 25.7 95 0.6 N 2 6 1 3 1008.5 1008.3 0.0
28/08:30am 25.8 32.3 25.1 96 0.5 CALM 0 0 0 0 1008.2 1008.0 0.0
28/08:00am 24.4 30.1 23.7 96 0.5 CALM 0 0 0 0 1007.8 1007.6 0.0
28/07:30am 23.4 28.1 22.0 92 0.9 CALM 0 0 0 0 1007.6 1007.4 0.0
28/07:00am 23.2 27.8 21.8 92 0.9 CALM 0 0 0 0 1007.3 1007.1 0.0
28/06:30am 23.4 28.1 22.0 92 0.9 CALM 0 0 0 0 1007.1 1006.9 0.0
28/06:00am 23.5 28.3 22.1 92 0.9 CALM 0 0 0 0 1006.7 1006.5 0.0
28/05:30am 23.6 28.4 22.2 92 0.9 CALM 0 0 0 0 1006.5 1006.3 0.0
28/05:00am 23.8 28.7 22.4 92 0.9 CALM 0 0 0 0 1006.4 1006.2 0.0
28/04:30am 23.8 28.7 22.4 92 0.9 CALM 0 0 0 0 1006.6 1006.4 0.0
28/04:00am 24.0 29.1 22.6 92 0.9 CALM 0 0 0 0 1006.6 1006.4 0.0
28/03:30am 23.9 28.8 22.3 91 1.1 CALM 0 0 0 0 1006.9 1006.7 0.0
28/03:00am 24.2 29.3 22.6 91 1.1 CALM 0 0 0 0 1007.2 1007.0 0.0
28/02:30am 24.3 29.4 22.7 91 1.1 CALM 0 0 0 0 1007.4 1007.2 0.0
28/02:00am 24.5 29.7 22.8 90 1.1 CALM 0 0 0 0 1007.6 1007.4 0.0
28/01:30am 24.7 29.9 22.9 90 1.2 CALM 0 0 0 0 1007.9 1007.7 0.0
28/01:00am 25.0 30.4 23.2 90 1.2 CALM 0 0 0 0 1008.1 1007.9 0.0
28/12:30am 25.1 30.7 23.5 91 1.1 CALM 0 0 0 0 1008.2 1008.0 0.0
28/12:00am 25.3 31.0 23.7 91 1.1 CALM 0 0 0 0 1008.3 1008.1 0.0
 
Date/Time
CST
Temp
°C
App
Temp
°C
Dew
Point
°C
Rel
Hum
%
Delta-T
°C
Wind Press
QNH
hPa
Press
MSL
hPa
Rain since
9am
mm
Dir  Spd
km/h
Gust
km/h
Spd
kts
Gust
kts
27/11:30pm 25.4 31.1 23.8 91 1.1 CALM 0 0 0 0 1008.4 1008.2 0.0
27/11:00pm 25.3 30.9 23.5 90 1.2 CALM 0 0 0 0 1008.1 1007.9 0.0
27/10:30pm 25.3 30.8 23.4 89 1.3 CALM 0 0 0 0 1007.8 1007.6 0.0
27/10:00pm 25.5 30.9 23.2 87 1.6 CALM 0 0 0 0 1007.7 1007.5 0.0
27/09:30pm 25.8 31.4 23.5 87 1.6 CALM 0 0 0 0 1007.1 1006.9 0.0
27/09:00pm 25.9 31.4 23.4 86 1.7 CALM 0 0 0 0 1006.5 1006.3 0.0
27/08:30pm 26.5 31.6 22.6 79 2.6 CALM 0 4 0 2 1005.9 1005.7 0.0
27/08:00pm 27.9 31.4 22.2 71 3.8 N 7 11 4 6 1005.5 1005.3 0.0
27/07:30pm 29.1 31.5 21.6 64 5.0 NNW 11 15 6 8 1005.1 1004.9 0.0
27/07:00pm 30.0 32.5 21.7 61 5.6 N 11 17 6 9 1004.7 1004.5 0.0
27/06:30pm 31.1 32.1 21.0 55 6.8 N 17 26 9 14 1004.3 1004.1 0.0
27/06:00pm 32.1 34.4 22.8 58 6.4 N 15 24 8 13 1003.9 1003.7 0.0
27/05:30pm 32.5 33.3 21.4 52 7.5 NNW 19 26 10 14 1003.8 1003.6 0.0
27/05:00pm 34.2 36.2 21.6 47 8.6 NNW 13 20 7 11 1003.7 1003.5 0.0
27/04:30pm 35.5 38.2 20.2 40 10.3 SSE 6 9 3 5 1003.8 1003.6 0.0
27/04:00pm 35.7 38.8 21.5 43 9.7 NE 7 11 4 6 1004.0 1003.8 0.0
27/03:30pm 35.7 39.3 23.0 48 8.8 SSE 9 15 5 8 1004.1 1003.9 0.0
27/03:00pm 35.9 40.1 23.2 48 8.8 NNE 6 11 3 6 1004.3 1004.1 0.0
27/02:30pm 36.3 40.1 23.5 47 9.0 SW 9 13 5 7 1004.7 1004.5 0.0
27/02:00pm 35.9 40.5 23.2 48 8.8 SE 4 7 2 4 1005.0 1004.8 0.0

Other formats

Comma delimited format used in spreadsheet applications
http://www.bom.gov.au/fwo/IDD60801/IDD60801.94100.axf

JavaScript Object Notation format (JSON) in row-major order
http://www.bom.gov.au/fwo/IDD60801/IDD60801.94100.json

Data quality

Most of these data are generated automatically and are frequently updated. Quality checks on data are not normally performed. It is possible for incorrect values to appear. Refer to information at About Latest Weather Observations and please check the disclaimer before using these data.